Terminal Aerodrome Forecast
Issued by NWS Des Moines, IA

Home | Current Version | Previous Version | Text Only | Print | Product List | Glossary On
Versions: 1 2 3 4 5 6 7 8 9 10 11 12 13 14 15 16 17 18 19 20 21 22 23 24 25 26 27 28 29 30 31 32
000
FTUS43 KDMX 010530
TAFALO
TAF
KALO 010530Z 0106/0206 08011KT 1SM -SN BR BKN005 OVC011
     FM010900 06019G25KT 3/4SM -SN BLSN OVC004
     FM011700 03021G30KT 1SM -SN BLSN OVC009
     FM020100 36015G23KT 5SM BLSN SCT012 OVC020=

USA.gov is the U.S. government's official web portal to all federal, state and local government web resources and services.